sensor_id;sensor_type;location;lat;lon;timestamp;P1;durP1;ratioP1;P2;durP2;ratioP2
21798;SDS011;24973;47.178;15.316;2023-07-20T00:00:50;6.70;;;3.80;;
21798;SDS011;24973;47.178;15.316;2023-07-20T00:03:40;6.77;;;3.83;;
21798;SDS011;24973;47.178;15.316;2023-07-20T00:06:30;3.70;;;3.13;;
21798;SDS011;24973;47.178;15.316;2023-07-20T00:09:20;4.53;;;3.30;;
21798;SDS011;24973;47.178;15.316;2023-07-20T00:12:10;6.43;;;3.60;;
21798;SDS011;24973;47.178;15.316;2023-07-20T00:14:59;4.23;;;3.30;;
21798;SDS011;24973;47.178;15.316;2023-07-20T00:17:48;6.53;;;3.23;;
21798;SDS011;24973;47.178;15.316;2023-07-20T00:20:38;4.77;;;3.60;;
21798;SDS011;24973;47.178;15.316;2023-07-20T00:23:29;4.33;;;3.93;;
21798;SDS011;24973;47.178;15.316;2023-07-20T00:26:18;4.47;;;3.00;;
21798;SDS011;24973;47.178;15.316;2023-07-20T00:29:08;4.50;;;2.57;;
21798;SDS011;24973;47.178;15.316;2023-07-20T00:31:58;3.70;;;3.33;;
21798;SDS011;24973;47.178;15.316;2023-07-20T00:34:47;6.37;;;3.47;;
21798;SDS011;24973;47.178;15.316;2023-07-20T00:37:36;4.87;;;3.40;;
21798;SDS011;24973;47.178;15.316;2023-07-20T00:40:26;7.87;;;3.93;;
21798;SDS011;24973;47.178;15.316;2023-07-20T00:43:15;8.70;;;3.90;;
21798;SDS011;24973;47.178;15.316;2023-07-20T00:46:04;7.60;;;4.00;;
21798;SDS011;24973;47.178;15.316;2023-07-20T00:48:53;5.20;;;3.27;;
21798;SDS011;24973;47.178;15.316;2023-07-20T00:51:43;5.07;;;2.97;;
21798;SDS011;24973;47.178;15.316;2023-07-20T00:54:32;6.67;;;3.57;;
21798;SDS011;24973;47.178;15.316;2023-07-20T00:57:23;5.87;;;3.47;;
21798;SDS011;24973;47.178;15.316;2023-07-20T01:00:13;4.13;;;3.10;;
21798;SDS011;24973;47.178;15.316;2023-07-20T01:03:03;7.10;;;3.50;;
21798;SDS011;24973;47.178;15.316;2023-07-20T01:05:54;5.70;;;3.57;;
21798;SDS011;24973;47.178;15.316;2023-07-20T01:08:48;6.37;;;3.87;;
21798;SDS011;24973;47.178;15.316;2023-07-20T01:11:52;4.43;;;3.33;;
21798;SDS011;24973;47.178;15.316;2023-07-20T01:14:47;4.60;;;3.37;;
21798;SDS011;24973;47.178;15.316;2023-07-20T01:17:36;7.57;;;2.83;;
21798;SDS011;24973;47.178;15.316;2023-07-20T01:20:25;6.83;;;4.20;;
21798;SDS011;24973;47.178;15.316;2023-07-20T01:23:23;5.00;;;3.53;;
21798;SDS011;24973;47.178;15.316;2023-07-20T01:26:27;11.03;;;3.60;;
21798;SDS011;24973;47.178;15.316;2023-07-20T01:29:36;4.40;;;3.40;;
21798;SDS011;24973;47.178;15.316;2023-07-20T01:32:33;5.60;;;3.23;;
21798;SDS011;24973;47.178;15.316;2023-07-20T01:35:22;6.73;;;3.77;;
21798;SDS011;24973;47.178;15.316;2023-07-20T01:38:14;8.60;;;3.93;;
21798;SDS011;24973;47.178;15.316;2023-07-20T01:41:03;5.30;;;2.80;;
21798;SDS011;24973;47.178;15.316;2023-07-20T01:43:52;6.07;;;4.07;;
21798;SDS011;24973;47.178;15.316;2023-07-20T01:46:41;5.83;;;3.90;;
21798;SDS011;24973;47.178;15.316;2023-07-20T01:49:31;6.73;;;3.47;;
21798;SDS011;24973;47.178;15.316;2023-07-20T01:52:21;5.53;;;3.90;;
21798;SDS011;24973;47.178;15.316;2023-07-20T01:55:10;5.60;;;3.07;;
21798;SDS011;24973;47.178;15.316;2023-07-20T01:57:59;5.87;;;3.40;;
21798;SDS011;24973;47.178;15.316;2023-07-20T02:00:48;5.23;;;3.77;;
21798;SDS011;24973;47.178;15.316;2023-07-20T02:03:37;4.27;;;3.53;;
21798;SDS011;24973;47.178;15.316;2023-07-20T02:06:28;6.43;;;3.60;;
21798;SDS011;24973;47.178;15.316;2023-07-20T02:09:17;6.23;;;3.57;;
21798;SDS011;24973;47.178;15.316;2023-07-20T02:12:06;4.27;;;3.73;;
21798;SDS011;24973;47.178;15.316;2023-07-20T02:14:56;5.87;;;3.93;;
21798;SDS011;24973;47.178;15.316;2023-07-20T02:17:45;5.83;;;3.57;;
21798;SDS011;24973;47.178;15.316;2023-07-20T02:20:34;7.27;;;3.53;;
21798;SDS011;24973;47.178;15.316;2023-07-20T02:23:24;9.10;;;5.07;;
21798;SDS011;24973;47.178;15.316;2023-07-20T02:26:14;4.73;;;3.27;;
21798;SDS011;24973;47.178;15.316;2023-07-20T02:29:03;4.03;;;3.50;;
21798;SDS011;24973;47.178;15.316;2023-07-20T02:31:52;6.10;;;4.30;;
21798;SDS011;24973;47.178;15.316;2023-07-20T02:34:41;7.37;;;3.83;;
21798;SDS011;24973;47.178;15.316;2023-07-20T02:37:30;4.27;;;3.13;;
21798;SDS011;24973;47.178;15.316;2023-07-20T02:40:21;3.90;;;3.50;;
21798;SDS011;24973;47.178;15.316;2023-07-20T02:43:10;5.00;;;3.53;;
21798;SDS011;24973;47.178;15.316;2023-07-20T02:45:59;5.47;;;3.47;;
21798;SDS011;24973;47.178;15.316;2023-07-20T02:48:48;5.03;;;3.43;;
21798;SDS011;24973;47.178;15.316;2023-07-20T02:51:37;7.57;;;3.63;;
21798;SDS011;24973;47.178;15.316;2023-07-20T02:54:26;4.77;;;3.47;;
21798;SDS011;24973;47.178;15.316;2023-07-20T02:57:18;8.40;;;3.70;;
21798;SDS011;24973;47.178;15.316;2023-07-20T03:00:07;5.83;;;3.60;;
21798;SDS011;24973;47.178;15.316;2023-07-20T03:02:58;5.53;;;3.73;;
21798;SDS011;24973;47.178;15.316;2023-07-20T03:05:47;9.50;;;3.33;;
21798;SDS011;24973;47.178;15.316;2023-07-20T03:08:41;8.83;;;4.00;;
21798;SDS011;24973;47.178;15.316;2023-07-20T03:11:33;5.83;;;3.97;;
21798;SDS011;24973;47.178;15.316;2023-07-20T03:14:24;4.33;;;3.63;;
21798;SDS011;24973;47.178;15.316;2023-07-20T03:17:13;6.50;;;3.87;;
21798;SDS011;24973;47.178;15.316;2023-07-20T03:20:02;6.37;;;3.27;;
21798;SDS011;24973;47.178;15.316;2023-07-20T03:22:55;7.00;;;3.17;;
21798;SDS011;24973;47.178;15.316;2023-07-20T03:25:44;6.90;;;3.70;;
21798;SDS011;24973;47.178;15.316;2023-07-20T03:28:33;6.90;;;3.53;;
21798;SDS011;24973;47.178;15.316;2023-07-20T03:31:24;5.17;;;3.17;;
21798;SDS011;24973;47.178;15.316;2023-07-20T03:34:13;8.63;;;3.37;;
21798;SDS011;24973;47.178;15.316;2023-07-20T03:37:02;7.27;;;4.40;;
21798;SDS011;24973;47.178;15.316;2023-07-20T03:39:53;8.07;;;3.47;;
21798;SDS011;24973;47.178;15.316;2023-07-20T03:42:42;4.97;;;3.47;;
21798;SDS011;24973;47.178;15.316;2023-07-20T03:45:31;4.20;;;2.97;;
21798;SDS011;24973;47.178;15.316;2023-07-20T03:48:22;8.50;;;4.37;;
21798;SDS011;24973;47.178;15.316;2023-07-20T03:51:12;6.37;;;4.67;;
21798;SDS011;24973;47.178;15.316;2023-07-20T03:54:01;9.93;;;4.53;;
21798;SDS011;24973;47.178;15.316;2023-07-20T03:56:50;4.77;;;3.17;;
21798;SDS011;24973;47.178;15.316;2023-07-20T03:59:39;6.23;;;3.67;;
21798;SDS011;24973;47.178;15.316;2023-07-20T04:02:32;5.10;;;3.87;;
21798;SDS011;24973;47.178;15.316;2023-07-20T04:05:23;4.23;;;3.83;;
21798;SDS011;24973;47.178;15.316;2023-07-20T04:08:12;5.03;;;3.47;;
21798;SDS011;24973;47.178;15.316;2023-07-20T04:11:01;5.60;;;3.37;;
21798;SDS011;24973;47.178;15.316;2023-07-20T04:13:50;3.43;;;2.87;;
21798;SDS011;24973;47.178;15.316;2023-07-20T04:16:39;4.17;;;3.53;;
21798;SDS011;24973;47.178;15.316;2023-07-20T04:19:29;5.40;;;3.33;;
21798;SDS011;24973;47.178;15.316;2023-07-20T04:22:19;6.93;;;3.20;;
21798;SDS011;24973;47.178;15.316;2023-07-20T04:25:09;4.37;;;3.90;;
21798;SDS011;24973;47.178;15.316;2023-07-20T04:27:58;9.60;;;3.93;;
21798;SDS011;24973;47.178;15.316;2023-07-20T04:30:48;6.47;;;3.63;;
21798;SDS011;24973;47.178;15.316;2023-07-20T04:33:38;7.73;;;3.83;;
21798;SDS011;24973;47.178;15.316;2023-07-20T04:36:27;4.63;;;3.77;;
21798;SDS011;24973;47.178;15.316;2023-07-20T04:39:17;5.80;;;3.47;;
21798;SDS011;24973;47.178;15.316;2023-07-20T04:42:11;3.83;;;3.47;;
21798;SDS011;24973;47.178;15.316;2023-07-20T04:45:00;6.77;;;4.00;;
21798;SDS011;24973;47.178;15.316;2023-07-20T04:47:50;4.57;;;3.73;;
21798;SDS011;24973;47.178;15.316;2023-07-20T04:50:40;6.77;;;3.83;;
21798;SDS011;24973;47.178;15.316;2023-07-20T04:53:29;4.27;;;3.27;;
21798;SDS011;24973;47.178;15.316;2023-07-20T04:56:20;10.70;;;4.77;;
21798;SDS011;24973;47.178;15.316;2023-07-20T04:59:10;5.00;;;3.67;;
21798;SDS011;24973;47.178;15.316;2023-07-20T05:01:59;3.93;;;3.43;;
21798;SDS011;24973;47.178;15.316;2023-07-20T05:04:48;7.37;;;4.17;;
21798;SDS011;24973;47.178;15.316;2023-07-20T05:07:37;5.90;;;4.07;;
21798;SDS011;24973;47.178;15.316;2023-07-20T05:10:26;4.43;;;4.03;;
21798;SDS011;24973;47.178;15.316;2023-07-20T05:13:16;6.80;;;4.27;;
21798;SDS011;24973;47.178;15.316;2023-07-20T05:16:05;6.87;;;4.63;;
21798;SDS011;24973;47.178;15.316;2023-07-20T05:18:55;6.20;;;4.23;;
21798;SDS011;24973;47.178;15.316;2023-07-20T05:21:44;6.40;;;4.83;;
21798;SDS011;24973;47.178;15.316;2023-07-20T05:24:33;6.77;;;4.50;;
21798;SDS011;24973;47.178;15.316;2023-07-20T05:27:22;5.77;;;3.67;;
21798;SDS011;24973;47.178;15.316;2023-07-20T05:30:13;7.83;;;4.03;;
21798;SDS011;24973;47.178;15.316;2023-07-20T05:33:02;9.13;;;5.37;;
21798;SDS011;24973;47.178;15.316;2023-07-20T05:35:51;9.07;;;3.53;;
21798;SDS011;24973;47.178;15.316;2023-07-20T05:38:40;7.40;;;4.10;;
21798;SDS011;24973;47.178;15.316;2023-07-20T05:41:29;6.53;;;4.77;;
21798;SDS011;24973;47.178;15.316;2023-07-20T05:44:18;10.47;;;4.90;;
21798;SDS011;24973;47.178;15.316;2023-07-20T05:47:09;9.43;;;4.03;;
21798;SDS011;24973;47.178;15.316;2023-07-20T05:49:58;9.33;;;4.07;;
21798;SDS011;24973;47.178;15.316;2023-07-20T05:52:47;6.40;;;4.67;;
21798;SDS011;24973;47.178;15.316;2023-07-20T05:55:36;9.40;;;5.17;;
21798;SDS011;24973;47.178;15.316;2023-07-20T05:58:26;8.70;;;4.17;;
21798;SDS011;24973;47.178;15.316;2023-07-20T06:01:15;9.50;;;4.33;;
21798;SDS011;24973;47.178;15.316;2023-07-20T06:04:06;9.17;;;4.37;;
21798;SDS011;24973;47.178;15.316;2023-07-20T06:06:55;9.40;;;4.67;;
21798;SDS011;24973;47.178;15.316;2023-07-20T06:09:44;8.67;;;4.50;;
21798;SDS011;24973;47.178;15.316;2023-07-20T06:12:33;12.53;;;5.20;;
21798;SDS011;24973;47.178;15.316;2023-07-20T06:15:25;5.93;;;4.53;;
21798;SDS011;24973;47.178;15.316;2023-07-20T06:18:15;5.87;;;4.37;;
21798;SDS011;24973;47.178;15.316;2023-07-20T06:21:05;10.03;;;4.57;;
21798;SDS011;24973;47.178;15.316;2023-07-20T06:23:54;9.33;;;4.90;;
21798;SDS011;24973;47.178;15.316;2023-07-20T06:26:43;7.27;;;4.33;;
21798;SDS011;24973;47.178;15.316;2023-07-20T06:29:32;6.13;;;4.03;;
21798;SDS011;24973;47.178;15.316;2023-07-20T06:32:21;7.30;;;4.47;;
21798;SDS011;24973;47.178;15.316;2023-07-20T06:35:10;6.33;;;4.00;;
21798;SDS011;24973;47.178;15.316;2023-07-20T06:38:01;6.70;;;4.53;;
21798;SDS011;24973;47.178;15.316;2023-07-20T06:40:53;10.80;;;4.37;;
21798;SDS011;24973;47.178;15.316;2023-07-20T06:43:42;10.53;;;5.80;;
21798;SDS011;24973;47.178;15.316;2023-07-20T06:46:34;6.00;;;4.00;;
21798;SDS011;24973;47.178;15.316;2023-07-20T06:49:24;8.07;;;4.87;;
21798;SDS011;24973;47.178;15.316;2023-07-20T06:52:13;9.00;;;4.70;;
21798;SDS011;24973;47.178;15.316;2023-07-20T06:55:04;7.43;;;4.20;;
21798;SDS011;24973;47.178;15.316;2023-07-20T06:57:54;6.27;;;4.17;;
21798;SDS011;24973;47.178;15.316;2023-07-20T07:00:44;9.57;;;5.37;;
21798;SDS011;24973;47.178;15.316;2023-07-20T07:03:33;7.47;;;4.63;;
21798;SDS011;24973;47.178;15.316;2023-07-20T07:06:23;10.27;;;4.57;;
21798;SDS011;24973;47.178;15.316;2023-07-20T07:09:14;7.67;;;4.60;;
21798;SDS011;24973;47.178;15.316;2023-07-20T07:12:05;9.87;;;3.77;;
21798;SDS011;24973;47.178;15.316;2023-07-20T07:14:55;6.67;;;4.03;;
21798;SDS011;24973;47.178;15.316;2023-07-20T07:17:44;8.07;;;4.13;;
21798;SDS011;24973;47.178;15.316;2023-07-20T07:20:33;6.53;;;4.33;;
21798;SDS011;24973;47.178;15.316;2023-07-20T07:23:22;10.77;;;4.97;;
21798;SDS011;24973;47.178;15.316;2023-07-20T07:26:12;9.73;;;4.37;;
21798;SDS011;24973;47.178;15.316;2023-07-20T07:29:02;7.93;;;5.20;;
21798;SDS011;24973;47.178;15.316;2023-07-20T07:31:51;5.97;;;4.43;;
21798;SDS011;24973;47.178;15.316;2023-07-20T07:34:40;7.00;;;4.63;;
21798;SDS011;24973;47.178;15.316;2023-07-20T07:37:29;7.53;;;3.97;;
21798;SDS011;24973;47.178;15.316;2023-07-20T07:40:19;7.97;;;4.30;;
21798;SDS011;24973;47.178;15.316;2023-07-20T07:43:08;6.00;;;3.60;;
21798;SDS011;24973;47.178;15.316;2023-07-20T07:45:58;9.70;;;5.00;;
21798;SDS011;24973;47.178;15.316;2023-07-20T07:48:47;8.67;;;4.60;;
21798;SDS011;24973;47.178;15.316;2023-07-20T07:51:36;7.50;;;3.97;;
21798;SDS011;24973;47.178;15.316;2023-07-20T07:54:25;10.47;;;4.47;;
21798;SDS011;24973;47.178;15.316;2023-07-20T07:57:14;7.63;;;4.13;;
21798;SDS011;24973;47.178;15.316;2023-07-20T08:00:04;5.70;;;3.83;;
21798;SDS011;24973;47.178;15.316;2023-07-20T08:02:58;7.67;;;4.50;;
21798;SDS011;24973;47.178;15.316;2023-07-20T08:05:48;7.77;;;4.53;;
21798;SDS011;24973;47.178;15.316;2023-07-20T08:08:37;5.97;;;3.77;;
21798;SDS011;24973;47.178;15.316;2023-07-20T08:11:26;7.07;;;3.83;;
21798;SDS011;24973;47.178;15.316;2023-07-20T08:14:17;6.60;;;3.87;;
21798;SDS011;24973;47.178;15.316;2023-07-20T08:17:06;9.17;;;4.43;;
21798;SDS011;24973;47.178;15.316;2023-07-20T08:19:57;4.83;;;3.23;;
21798;SDS011;24973;47.178;15.316;2023-07-20T08:22:46;6.63;;;4.10;;
21798;SDS011;24973;47.178;15.316;2023-07-20T08:25:35;4.13;;;3.73;;
21798;SDS011;24973;47.178;15.316;2023-07-20T08:28:26;6.97;;;4.10;;
21798;SDS011;24973;47.178;15.316;2023-07-20T08:31:15;7.33;;;2.90;;
21798;SDS011;24973;47.178;15.316;2023-07-20T08:34:04;3.37;;;3.00;;
21798;SDS011;24973;47.178;15.316;2023-07-20T08:36:59;4.67;;;2.93;;
21798;SDS011;24973;47.178;15.316;2023-07-20T08:39:48;4.87;;;3.47;;
21798;SDS011;24973;47.178;15.316;2023-07-20T08:42:38;7.43;;;3.53;;
21798;SDS011;24973;47.178;15.316;2023-07-20T08:45:27;6.77;;;3.23;;
21798;SDS011;24973;47.178;15.316;2023-07-20T08:48:17;8.93;;;3.63;;
21798;SDS011;24973;47.178;15.316;2023-07-20T08:51:07;5.90;;;4.20;;
21798;SDS011;24973;47.178;15.316;2023-07-20T08:53:58;11.37;;;5.07;;
21798;SDS011;24973;47.178;15.316;2023-07-20T08:56:47;4.10;;;2.93;;
21798;SDS011;24973;47.178;15.316;2023-07-20T08:59:36;10.27;;;3.97;;
21798;SDS011;24973;47.178;15.316;2023-07-20T09:02:26;7.27;;;3.10;;
21798;SDS011;24973;47.178;15.316;2023-07-20T09:05:15;5.33;;;3.17;;
21798;SDS011;24973;47.178;15.316;2023-07-20T09:08:05;4.57;;;2.40;;
21798;SDS011;24973;47.178;15.316;2023-07-20T09:10:56;3.80;;;3.23;;
21798;SDS011;24973;47.178;15.316;2023-07-20T09:13:45;3.33;;;2.87;;
21798;SDS011;24973;47.178;15.316;2023-07-20T09:16:46;4.20;;;2.77;;
21798;SDS011;24973;47.178;15.316;2023-07-20T09:19:36;3.63;;;3.00;;
21798;SDS011;24973;47.178;15.316;2023-07-20T09:22:29;5.87;;;3.33;;
21798;SDS011;24973;47.178;15.316;2023-07-20T09:25:18;4.93;;;2.50;;
21798;SDS011;24973;47.178;15.316;2023-07-20T09:28:09;5.67;;;2.73;;
21798;SDS011;24973;47.178;15.316;2023-07-20T09:30:58;3.13;;;2.47;;
21798;SDS011;24973;47.178;15.316;2023-07-20T09:34:04;4.32;;;2.92;;
21798;SDS011;24973;47.178;15.316;2023-07-20T09:36:53;4.18;;;3.00;;
21798;SDS011;24973;47.178;15.316;2023-07-20T09:39:44;4.27;;;2.57;;
21798;SDS011;24973;47.178;15.316;2023-07-20T09:42:37;3.08;;;2.70;;
21798;SDS011;24973;47.178;15.316;2023-07-20T09:45:30;3.55;;;3.20;;
21798;SDS011;24973;47.178;15.316;2023-07-20T09:48:25;2.90;;;2.60;;
21798;SDS011;24973;47.178;15.316;2023-07-20T09:51:17;3.35;;;2.28;;
21798;SDS011;24973;47.178;15.316;2023-07-20T09:54:07;2.55;;;1.85;;
21798;SDS011;24973;47.178;15.316;2023-07-20T09:56:56;3.75;;;2.65;;
21798;SDS011;24973;47.178;15.316;2023-07-20T09:59:45;2.97;;;2.42;;
21798;SDS011;24973;47.178;15.316;2023-07-20T10:02:36;3.10;;;2.35;;
21798;SDS011;24973;47.178;15.316;2023-07-20T10:05:30;4.30;;;2.63;;
21798;SDS011;24973;47.178;15.316;2023-07-20T10:08:23;3.35;;;3.03;;
21798;SDS011;24973;47.178;15.316;2023-07-20T10:11:16;4.57;;;2.80;;
21798;SDS011;24973;47.178;15.316;2023-07-20T10:14:05;6.90;;;3.45;;
21798;SDS011;24973;47.178;15.316;2023-07-20T10:16:58;4.32;;;2.40;;
21798;SDS011;24973;47.178;15.316;2023-07-20T10:19:53;5.60;;;2.78;;
21798;SDS011;24973;47.178;15.316;2023-07-20T10:22:44;4.82;;;2.58;;
21798;SDS011;24973;47.178;15.316;2023-07-20T10:25:36;7.10;;;2.33;;
21798;SDS011;24973;47.178;15.316;2023-07-20T10:28:27;3.97;;;2.80;;
21798;SDS011;24973;47.178;15.316;2023-07-20T10:31:16;6.20;;;3.00;;
21798;SDS011;24973;47.178;15.316;2023-07-20T10:34:06;3.08;;;2.75;;
21798;SDS011;24973;47.178;15.316;2023-07-20T10:36:58;3.72;;;2.90;;
21798;SDS011;24973;47.178;15.316;2023-07-20T10:39:47;2.63;;;2.42;;
21798;SDS011;24973;47.178;15.316;2023-07-20T10:42:38;3.42;;;2.88;;
21798;SDS011;24973;47.178;15.316;2023-07-20T10:45:34;2.67;;;2.42;;
21798;SDS011;24973;47.178;15.316;2023-07-20T10:48:59;4.25;;;2.72;;
21798;SDS011;24973;47.178;15.316;2023-07-20T10:51:49;3.00;;;2.60;;
21798;SDS011;24973;47.178;15.316;2023-07-20T10:54:47;4.75;;;2.80;;
21798;SDS011;24973;47.178;15.316;2023-07-20T10:57:39;3.05;;;2.33;;
21798;SDS011;24973;47.178;15.316;2023-07-20T11:00:27;3.85;;;2.78;;
21798;SDS011;24973;47.178;15.316;2023-07-20T11:03:26;3.65;;;2.50;;
21798;SDS011;24973;47.178;15.316;2023-07-20T11:06:30;3.47;;;3.13;;
21798;SDS011;24973;47.178;15.316;2023-07-20T11:09:33;2.72;;;2.50;;
21798;SDS011;24973;47.178;15.316;2023-07-20T11:12:23;3.72;;;2.45;;
21798;SDS011;24973;47.178;15.316;2023-07-20T11:15:12;3.70;;;2.30;;
21798;SDS011;24973;47.178;15.316;2023-07-20T11:18:10;7.50;;;3.65;;
21798;SDS011;24973;47.178;15.316;2023-07-20T11:21:00;4.65;;;2.78;;
21798;SDS011;24973;47.178;15.316;2023-07-20T11:23:50;5.15;;;1.95;;
21798;SDS011;24973;47.178;15.316;2023-07-20T11:26:43;4.60;;;2.60;;
21798;SDS011;24973;47.178;15.316;2023-07-20T11:29:34;2.20;;;1.90;;
21798;SDS011;24973;47.178;15.316;2023-07-20T11:32:24;3.70;;;2.00;;
21798;SDS011;24973;47.178;15.316;2023-07-20T11:35:13;2.80;;;2.57;;
21798;SDS011;24973;47.178;15.316;2023-07-20T11:38:02;4.40;;;2.53;;
21798;SDS011;24973;47.178;15.316;2023-07-20T11:40:51;2.03;;;1.77;;
21798;SDS011;24973;47.178;15.316;2023-07-20T11:43:42;2.73;;;2.20;;
21798;SDS011;24973;47.178;15.316;2023-07-20T11:46:30;3.43;;;2.23;;
21798;SDS011;24973;47.178;15.316;2023-07-20T11:49:19;3.10;;;2.80;;
21798;SDS011;24973;47.178;15.316;2023-07-20T11:52:09;5.33;;;2.60;;
21798;SDS011;24973;47.178;15.316;2023-07-20T11:55:00;2.90;;;2.30;;
21798;SDS011;24973;47.178;15.316;2023-07-20T11:58:00;8.17;;;3.10;;
21798;SDS011;24973;47.178;15.316;2023-07-20T12:00:51;3.43;;;3.13;;
21798;SDS011;24973;47.178;15.316;2023-07-20T12:03:41;4.50;;;2.80;;
21798;SDS011;24973;47.178;15.316;2023-07-20T12:06:31;2.90;;;2.13;;
21798;SDS011;24973;47.178;15.316;2023-07-20T12:09:20;3.97;;;2.50;;
21798;SDS011;24973;47.178;15.316;2023-07-20T12:12:10;3.40;;;2.73;;
21798;SDS011;24973;47.178;15.316;2023-07-20T12:15:13;4.97;;;3.00;;
21798;SDS011;24973;47.178;15.316;2023-07-20T12:18:04;4.30;;;3.20;;
21798;SDS011;24973;47.178;15.316;2023-07-20T12:20:58;6.67;;;3.60;;
21798;SDS011;24973;47.178;15.316;2023-07-20T12:23:48;4.27;;;3.07;;
21798;SDS011;24973;47.178;15.316;2023-07-20T12:26:37;3.97;;;2.90;;
21798;SDS011;24973;47.178;15.316;2023-07-20T12:29:26;5.67;;;3.10;;
21798;SDS011;24973;47.178;15.316;2023-07-20T12:32:15;7.23;;;2.87;;
21798;SDS011;24973;47.178;15.316;2023-07-20T12:35:09;3.47;;;2.90;;
21798;SDS011;24973;47.178;15.316;2023-07-20T12:38:01;6.40;;;2.87;;
21798;SDS011;24973;47.178;15.316;2023-07-20T12:40:51;8.33;;;3.40;;
21798;SDS011;24973;47.178;15.316;2023-07-20T12:43:41;3.90;;;2.93;;
21798;SDS011;24973;47.178;15.316;2023-07-20T12:46:31;5.80;;;3.43;;
21798;SDS011;24973;47.178;15.316;2023-07-20T12:49:21;5.40;;;4.00;;
21798;SDS011;24973;47.178;15.316;2023-07-20T12:52:12;6.33;;;3.13;;
21798;SDS011;24973;47.178;15.316;2023-07-20T12:55:01;8.20;;;3.97;;
21798;SDS011;24973;47.178;15.316;2023-07-20T12:57:50;4.20;;;2.80;;
21798;SDS011;24973;47.178;15.316;2023-07-20T13:00:39;3.97;;;3.33;;
21798;SDS011;24973;47.178;15.316;2023-07-20T13:03:28;7.17;;;3.80;;
21798;SDS011;24973;47.178;15.316;2023-07-20T13:06:18;6.20;;;3.43;;
21798;SDS011;24973;47.178;15.316;2023-07-20T13:09:14;5.70;;;3.40;;
21798;SDS011;24973;47.178;15.316;2023-07-20T13:12:03;2.50;;;2.30;;
21798;SDS011;24973;47.178;15.316;2023-07-20T13:14:52;3.17;;;2.90;;
21798;SDS011;24973;47.178;15.316;2023-07-20T13:17:41;5.80;;;3.53;;
21798;SDS011;24973;47.178;15.316;2023-07-20T13:20:31;3.73;;;3.30;;
21798;SDS011;24973;47.178;15.316;2023-07-20T13:23:20;3.20;;;2.90;;
21798;SDS011;24973;47.178;15.316;2023-07-20T13:26:10;7.63;;;3.70;;
21798;SDS011;24973;47.178;15.316;2023-07-20T13:28:59;3.83;;;3.20;;
21798;SDS011;24973;47.178;15.316;2023-07-20T13:31:49;3.17;;;2.77;;
21798;SDS011;24973;47.178;15.316;2023-07-20T13:34:38;5.13;;;3.00;;
21798;SDS011;24973;47.178;15.316;2023-07-20T13:37:27;3.47;;;2.53;;
21798;SDS011;24973;47.178;15.316;2023-07-20T13:40:16;4.93;;;3.27;;
21798;SDS011;24973;47.178;15.316;2023-07-20T13:43:07;3.67;;;2.53;;
21798;SDS011;24973;47.178;15.316;2023-07-20T13:45:56;6.00;;;3.13;;
21798;SDS011;24973;47.178;15.316;2023-07-20T13:48:45;4.50;;;2.90;;
21798;SDS011;24973;47.178;15.316;2023-07-20T13:51:40;4.57;;;3.00;;
21798;SDS011;24973;47.178;15.316;2023-07-20T13:54:30;4.30;;;2.77;;
21798;SDS011;24973;47.178;15.316;2023-07-20T13:57:19;3.70;;;2.37;;
21798;SDS011;24973;47.178;15.316;2023-07-20T14:00:10;5.47;;;2.83;;
21798;SDS011;24973;47.178;15.316;2023-07-20T14:03:02;4.27;;;2.60;;
21798;SDS011;24973;47.178;15.316;2023-07-20T14:05:54;3.93;;;2.97;;
21798;SDS011;24973;47.178;15.316;2023-07-20T14:08:46;3.33;;;2.75;;
21798;SDS011;24973;47.178;15.316;2023-07-20T14:11:36;3.70;;;2.13;;
21798;SDS011;24973;47.178;15.316;2023-07-20T14:14:28;3.78;;;3.20;;
21798;SDS011;24973;47.178;15.316;2023-07-20T14:17:18;3.03;;;2.45;;
21798;SDS011;24973;47.178;15.316;2023-07-20T14:20:07;4.32;;;2.83;;
21798;SDS011;24973;47.178;15.316;2023-07-20T14:23:00;4.65;;;2.40;;
21798;SDS011;24973;47.178;15.316;2023-07-20T14:25:49;3.58;;;3.17;;
21798;SDS011;24973;47.178;15.316;2023-07-20T14:28:38;5.75;;;3.13;;
21798;SDS011;24973;47.178;15.316;2023-07-20T14:31:27;3.30;;;2.45;;
21798;SDS011;24973;47.178;15.316;2023-07-20T14:34:17;3.97;;;2.80;;
21798;SDS011;24973;47.178;15.316;2023-07-20T14:37:06;3.60;;;3.10;;
21798;SDS011;24973;47.178;15.316;2023-07-20T14:39:56;3.28;;;2.97;;
21798;SDS011;24973;47.178;15.316;2023-07-20T14:42:46;4.07;;;2.85;;
21798;SDS011;24973;47.178;15.316;2023-07-20T14:45:35;3.20;;;2.90;;
21798;SDS011;24973;47.178;15.316;2023-07-20T14:48:25;4.70;;;2.63;;
21798;SDS011;24973;47.178;15.316;2023-07-20T14:51:15;3.47;;;2.93;;
21798;SDS011;24973;47.178;15.316;2023-07-20T14:54:06;3.47;;;2.57;;
21798;SDS011;24973;47.178;15.316;2023-07-20T14:56:55;6.53;;;2.50;;
21798;SDS011;24973;47.178;15.316;2023-07-20T14:59:44;6.07;;;2.30;;
21798;SDS011;24973;47.178;15.316;2023-07-20T15:02:33;6.43;;;2.60;;
21798;SDS011;24973;47.178;15.316;2023-07-20T15:05:22;3.63;;;3.20;;
21798;SDS011;24973;47.178;15.316;2023-07-20T15:08:14;3.90;;;2.80;;
21798;SDS011;24973;47.178;15.316;2023-07-20T15:11:03;5.73;;;3.40;;
21798;SDS011;24973;47.178;15.316;2023-07-20T15:13:52;3.03;;;2.60;;
21798;SDS011;24973;47.178;15.316;2023-07-20T15:16:41;5.50;;;2.60;;
21798;SDS011;24973;47.178;15.316;2023-07-20T15:19:31;3.73;;;3.00;;
21798;SDS011;24973;47.178;15.316;2023-07-20T15:22:22;3.10;;;2.40;;
21798;SDS011;24973;47.178;15.316;2023-07-20T15:25:13;3.77;;;2.80;;
21798;SDS011;24973;47.178;15.316;2023-07-20T15:28:02;3.10;;;2.43;;
21798;SDS011;24973;47.178;15.316;2023-07-20T15:30:58;4.97;;;2.83;;
21798;SDS011;24973;47.178;15.316;2023-07-20T15:33:48;4.90;;;2.87;;
21798;SDS011;24973;47.178;15.316;2023-07-20T15:36:39;3.23;;;2.77;;
21798;SDS011;24973;47.178;15.316;2023-07-20T15:39:28;4.73;;;2.50;;
21798;SDS011;24973;47.178;15.316;2023-07-20T15:42:18;4.33;;;2.80;;
21798;SDS011;24973;47.178;15.316;2023-07-20T15:45:23;3.77;;;2.73;;
21798;SDS011;24973;47.178;15.316;2023-07-20T15:48:12;5.17;;;3.23;;
21798;SDS011;24973;47.178;15.316;2023-07-20T15:51:01;4.77;;;3.00;;
21798;SDS011;24973;47.178;15.316;2023-07-20T15:53:50;6.57;;;2.47;;
21798;SDS011;24973;47.178;15.316;2023-07-20T15:56:41;3.40;;;3.00;;
21798;SDS011;24973;47.178;15.316;2023-07-20T15:59:32;6.80;;;3.13;;
21798;SDS011;24973;47.178;15.316;2023-07-20T16:02:21;4.70;;;2.37;;
21798;SDS011;24973;47.178;15.316;2023-07-20T16:05:10;5.27;;;3.43;;
21798;SDS011;24973;47.178;15.316;2023-07-20T16:08:00;8.70;;;3.37;;
21798;SDS011;24973;47.178;15.316;2023-07-20T16:10:51;3.40;;;3.10;;
21798;SDS011;24973;47.178;15.316;2023-07-20T16:13:43;8.10;;;3.80;;
21798;SDS011;24973;47.178;15.316;2023-07-20T16:16:34;5.37;;;3.60;;
21798;SDS011;24973;47.178;15.316;2023-07-20T16:19:23;5.10;;;3.43;;
21798;SDS011;24973;47.178;15.316;2023-07-20T16:22:12;5.87;;;3.30;;
21798;SDS011;24973;47.178;15.316;2023-07-20T16:25:01;3.43;;;3.13;;
21798;SDS011;24973;47.178;15.316;2023-07-20T16:27:51;5.83;;;3.33;;
21798;SDS011;24973;47.178;15.316;2023-07-20T16:30:40;5.23;;;3.23;;
21798;SDS011;24973;47.178;15.316;2023-07-20T16:33:30;6.37;;;3.77;;
21798;SDS011;24973;47.178;15.316;2023-07-20T16:36:19;4.83;;;3.07;;
21798;SDS011;24973;47.178;15.316;2023-07-20T16:39:09;4.20;;;3.57;;
21798;SDS011;24973;47.178;15.316;2023-07-20T16:42:01;3.37;;;2.90;;
21798;SDS011;24973;47.178;15.316;2023-07-20T16:44:51;3.90;;;3.13;;
21798;SDS011;24973;47.178;15.316;2023-07-20T16:47:40;6.03;;;3.13;;
21798;SDS011;24973;47.178;15.316;2023-07-20T16:50:31;4.87;;;3.30;;